sensor_id;sensor_type;location;lat;lon;timestamp;P1;durP1;ratioP1;P2;durP2;ratioP2
14092;SDS011;7123;49.468;10.992;2023-06-14T00:00:44;3.95;;;3.58;;
14092;SDS011;7123;49.468;10.992;2023-06-14T00:03:11;4.40;;;3.72;;
14092;SDS011;7123;49.468;10.992;2023-06-14T00:05:38;4.32;;;3.90;;
14092;SDS011;7123;49.468;10.992;2023-06-14T00:08:09;6.28;;;3.60;;
14092;SDS011;7123;49.468;10.992;2023-06-14T00:10:37;4.60;;;4.15;;
14092;SDS011;7123;49.468;10.992;2023-06-14T00:13:04;5.47;;;3.70;;
14092;SDS011;7123;49.468;10.992;2023-06-14T00:15:31;6.13;;;3.80;;
14092;SDS011;7123;49.468;10.992;2023-06-14T00:17:58;7.10;;;3.90;;
14092;SDS011;7123;49.468;10.992;2023-06-14T00:20:28;6.10;;;3.85;;
14092;SDS011;7123;49.468;10.992;2023-06-14T00:22:57;4.85;;;4.00;;
14092;SDS011;7123;49.468;10.992;2023-06-14T00:25:24;4.30;;;3.90;;
14092;SDS011;7123;49.468;10.992;2023-06-14T00:27:57;7.18;;;3.75;;
14092;SDS011;7123;49.468;10.992;2023-06-14T00:30:24;4.00;;;3.70;;
14092;SDS011;7123;49.468;10.992;2023-06-14T00:32:51;4.00;;;3.63;;
14092;SDS011;7123;49.468;10.992;2023-06-14T00:35:19;3.92;;;3.63;;
14092;SDS011;7123;49.468;10.992;2023-06-14T00:37:45;4.50;;;3.90;;
14092;SDS011;7123;49.468;10.992;2023-06-14T00:40:12;3.85;;;3.55;;
14092;SDS011;7123;49.468;10.992;2023-06-14T00:42:40;3.65;;;3.45;;
14092;SDS011;7123;49.468;10.992;2023-06-14T00:45:06;6.07;;;3.72;;
14092;SDS011;7123;49.468;10.992;2023-06-14T00:47:36;4.00;;;3.67;;
14092;SDS011;7123;49.468;10.992;2023-06-14T00:50:06;7.13;;;4.03;;
14092;SDS011;7123;49.468;10.992;2023-06-14T00:52:34;4.90;;;3.47;;
14092;SDS011;7123;49.468;10.992;2023-06-14T00:55:01;9.23;;;3.80;;
14092;SDS011;7123;49.468;10.992;2023-06-14T00:57:28;4.13;;;3.47;;
14092;SDS011;7123;49.468;10.992;2023-06-14T00:59:58;4.57;;;3.80;;
14092;SDS011;7123;49.468;10.992;2023-06-14T01:02:25;5.88;;;3.90;;
14092;SDS011;7123;49.468;10.992;2023-06-14T01:04:52;8.95;;;3.75;;
14092;SDS011;7123;49.468;10.992;2023-06-14T01:13:02;5.38;;;3.60;;
14092;SDS011;7123;49.468;10.992;2023-06-14T01:15:38;4.20;;;3.47;;
14092;SDS011;7123;49.468;10.992;2023-06-14T01:18:07;4.20;;;3.78;;
14092;SDS011;7123;49.468;10.992;2023-06-14T01:20:34;4.93;;;3.70;;
14092;SDS011;7123;49.468;10.992;2023-06-14T01:23:05;4.47;;;4.00;;
14092;SDS011;7123;49.468;10.992;2023-06-14T01:25:32;6.60;;;4.03;;
14092;SDS011;7123;49.468;10.992;2023-06-14T01:27:59;4.35;;;3.70;;
14092;SDS011;7123;49.468;10.992;2023-06-14T01:30:29;3.58;;;3.25;;
14092;SDS011;7123;49.468;10.992;2023-06-14T01:32:59;7.10;;;3.60;;
14092;SDS011;7123;49.468;10.992;2023-06-14T01:35:26;4.20;;;3.53;;
14092;SDS011;7123;49.468;10.992;2023-06-14T01:37:53;5.13;;;3.80;;
14092;SDS011;7123;49.468;10.992;2023-06-14T01:40:20;6.57;;;3.63;;
14092;SDS011;7123;49.468;10.992;2023-06-14T01:42:47;4.78;;;3.72;;
14092;SDS011;7123;49.468;10.992;2023-06-14T01:45:17;3.63;;;3.22;;
14092;SDS011;7123;49.468;10.992;2023-06-14T01:47:45;4.60;;;3.30;;
14092;SDS011;7123;49.468;10.992;2023-06-14T01:50:13;4.90;;;3.83;;
14092;SDS011;7123;49.468;10.992;2023-06-14T01:52:40;7.30;;;3.75;;
14092;SDS011;7123;49.468;10.992;2023-06-14T01:55:07;5.80;;;4.00;;
14092;SDS011;7123;49.468;10.992;2023-06-14T01:57:34;9.75;;;3.70;;
14092;SDS011;7123;49.468;10.992;2023-06-14T02:00:01;5.00;;;3.45;;
14092;SDS011;7123;49.468;10.992;2023-06-14T02:02:29;3.80;;;3.47;;
14092;SDS011;7123;49.468;10.992;2023-06-14T02:04:56;6.20;;;3.88;;
14092;SDS011;7123;49.468;10.992;2023-06-14T02:07:23;4.05;;;3.63;;
14092;SDS011;7123;49.468;10.992;2023-06-14T02:09:50;5.90;;;3.47;;
14092;SDS011;7123;49.468;10.992;2023-06-14T02:12:17;4.38;;;3.28;;
14092;SDS011;7123;49.468;10.992;2023-06-14T02:14:44;5.18;;;3.30;;
14092;SDS011;7123;49.468;10.992;2023-06-14T02:17:11;5.65;;;3.40;;
14092;SDS011;7123;49.468;10.992;2023-06-14T02:19:38;5.93;;;3.45;;
14092;SDS011;7123;49.468;10.992;2023-06-14T02:22:04;4.15;;;3.50;;
14092;SDS011;7123;49.468;10.992;2023-06-14T02:24:31;3.25;;;3.05;;
14092;SDS011;7123;49.468;10.992;2023-06-14T02:26:58;4.93;;;3.47;;
14092;SDS011;7123;49.468;10.992;2023-06-14T02:29:25;5.38;;;3.42;;
14092;SDS011;7123;49.468;10.992;2023-06-14T02:31:52;3.65;;;3.33;;
14092;SDS011;7123;49.468;10.992;2023-06-14T02:34:19;5.97;;;3.30;;
14092;SDS011;7123;49.468;10.992;2023-06-14T02:36:47;5.60;;;3.50;;
14092;SDS011;7123;49.468;10.992;2023-06-14T02:39:14;3.38;;;3.17;;
14092;SDS011;7123;49.468;10.992;2023-06-14T02:41:41;4.50;;;3.53;;
14092;SDS011;7123;49.468;10.992;2023-06-14T02:44:09;4.05;;;3.10;;
14092;SDS011;7123;49.468;10.992;2023-06-14T02:46:37;3.95;;;3.55;;
14092;SDS011;7123;49.468;10.992;2023-06-14T02:49:04;5.78;;;3.72;;
14092;SDS011;7123;49.468;10.992;2023-06-14T02:51:31;11.98;;;3.83;;
14092;SDS011;7123;49.468;10.992;2023-06-14T02:53:58;3.55;;;3.25;;
14092;SDS011;7123;49.468;10.992;2023-06-14T02:56:25;4.85;;;3.50;;
14092;SDS011;7123;49.468;10.992;2023-06-14T02:58:52;5.90;;;3.30;;
14092;SDS011;7123;49.468;10.992;2023-06-14T03:01:19;3.90;;;3.60;;
14092;SDS011;7123;49.468;10.992;2023-06-14T03:03:47;3.67;;;3.40;;
14092;SDS011;7123;49.468;10.992;2023-06-14T03:06:14;3.88;;;3.50;;
14092;SDS011;7123;49.468;10.992;2023-06-14T03:08:42;4.25;;;3.83;;
14092;SDS011;7123;49.468;10.992;2023-06-14T03:11:10;3.72;;;3.53;;
14092;SDS011;7123;49.468;10.992;2023-06-14T03:13:36;4.70;;;3.80;;
14092;SDS011;7123;49.468;10.992;2023-06-14T03:16:04;4.18;;;3.88;;
14092;SDS011;7123;49.468;10.992;2023-06-14T03:18:31;3.72;;;3.42;;
14092;SDS011;7123;49.468;10.992;2023-06-14T03:21:02;4.03;;;3.45;;
14092;SDS011;7123;49.468;10.992;2023-06-14T03:23:29;4.33;;;3.67;;
14092;SDS011;7123;49.468;10.992;2023-06-14T03:25:57;4.03;;;3.73;;
14092;SDS011;7123;49.468;10.992;2023-06-14T03:28:24;5.07;;;3.30;;
14092;SDS011;7123;49.468;10.992;2023-06-14T03:30:50;4.00;;;3.70;;
14092;SDS011;7123;49.468;10.992;2023-06-14T03:33:18;5.40;;;4.10;;
14092;SDS011;7123;49.468;10.992;2023-06-14T03:35:45;4.72;;;3.78;;
14092;SDS011;7123;49.468;10.992;2023-06-14T03:38:12;4.53;;;3.50;;
14092;SDS011;7123;49.468;10.992;2023-06-14T03:40:38;5.15;;;3.97;;
14092;SDS011;7123;49.468;10.992;2023-06-14T03:43:05;6.53;;;4.45;;
14092;SDS011;7123;49.468;10.992;2023-06-14T03:45:32;5.88;;;3.55;;
14092;SDS011;7123;49.468;10.992;2023-06-14T03:47:59;3.90;;;3.60;;
14092;SDS011;7123;49.468;10.992;2023-06-14T03:50:27;6.83;;;3.70;;
14092;SDS011;7123;49.468;10.992;2023-06-14T03:52:54;5.70;;;4.05;;
14092;SDS011;7123;49.468;10.992;2023-06-14T03:55:21;4.18;;;3.75;;
14092;SDS011;7123;49.468;10.992;2023-06-14T03:58:11;4.50;;;3.95;;
14092;SDS011;7123;49.468;10.992;2023-06-14T04:00:39;5.72;;;4.40;;
14092;SDS011;7123;49.468;10.992;2023-06-14T04:03:06;4.32;;;3.88;;
14092;SDS011;7123;49.468;10.992;2023-06-14T04:05:33;5.27;;;3.93;;
14092;SDS011;7123;49.468;10.992;2023-06-14T04:08:00;4.85;;;4.35;;
14092;SDS011;7123;49.468;10.992;2023-06-14T04:10:27;4.82;;;4.03;;
14092;SDS011;7123;49.468;10.992;2023-06-14T04:12:54;4.40;;;3.77;;
14092;SDS011;7123;49.468;10.992;2023-06-14T04:15:21;4.47;;;3.67;;
14092;SDS011;7123;49.468;10.992;2023-06-14T04:17:48;6.07;;;4.30;;
14092;SDS011;7123;49.468;10.992;2023-06-14T04:20:15;6.55;;;4.10;;
14092;SDS011;7123;49.468;10.992;2023-06-14T04:22:43;6.50;;;4.23;;
14092;SDS011;7123;49.468;10.992;2023-06-14T04:25:10;7.10;;;4.10;;
14092;SDS011;7123;49.468;10.992;2023-06-14T04:27:38;4.20;;;3.90;;
14092;SDS011;7123;49.468;10.992;2023-06-14T04:30:05;7.33;;;3.90;;
14092;SDS011;7123;49.468;10.992;2023-06-14T04:32:32;4.45;;;4.00;;
14092;SDS011;7123;49.468;10.992;2023-06-14T04:35:06;4.70;;;4.30;;
14092;SDS011;7123;49.468;10.992;2023-06-14T04:37:33;5.33;;;3.57;;
14092;SDS011;7123;49.468;10.992;2023-06-14T04:40:00;4.87;;;4.37;;
14092;SDS011;7123;49.468;10.992;2023-06-14T04:42:29;6.20;;;4.17;;
14092;SDS011;7123;49.468;10.992;2023-06-14T04:44:56;4.32;;;3.92;;
14092;SDS011;7123;49.468;10.992;2023-06-14T04:47:23;5.40;;;4.00;;
14092;SDS011;7123;49.468;10.992;2023-06-14T04:49:59;8.50;;;4.13;;
14092;SDS011;7123;49.468;10.992;2023-06-14T04:52:26;4.20;;;3.90;;
14092;SDS011;7123;49.468;10.992;2023-06-14T04:54:56;4.20;;;3.80;;
14092;SDS011;7123;49.468;10.992;2023-06-14T04:57:23;6.83;;;4.10;;
14092;SDS011;7123;49.468;10.992;2023-06-14T04:59:51;6.67;;;3.73;;
14092;SDS011;7123;49.468;10.992;2023-06-14T05:02:22;4.57;;;3.87;;
14092;SDS011;7123;49.468;10.992;2023-06-14T05:04:49;3.93;;;3.57;;
14092;SDS011;7123;49.468;10.992;2023-06-14T05:07:17;5.90;;;3.43;;
14092;SDS011;7123;49.468;10.992;2023-06-14T05:09:44;3.80;;;3.50;;
14092;SDS011;7123;49.468;10.992;2023-06-14T05:12:11;3.97;;;3.60;;
14092;SDS011;7123;49.468;10.992;2023-06-14T05:14:38;4.10;;;3.77;;
14092;SDS011;7123;49.468;10.992;2023-06-14T05:17:05;6.73;;;3.67;;
14092;SDS011;7123;49.468;10.992;2023-06-14T05:19:32;4.33;;;4.03;;
14092;SDS011;7123;49.468;10.992;2023-06-14T05:21:59;6.33;;;3.60;;
14092;SDS011;7123;49.468;10.992;2023-06-14T05:24:26;16.50;;;4.00;;
14092;SDS011;7123;49.468;10.992;2023-06-14T05:26:55;4.10;;;3.47;;
14092;SDS011;7123;49.468;10.992;2023-06-14T05:29:22;6.30;;;4.20;;
14092;SDS011;7123;49.468;10.992;2023-06-14T05:31:49;7.60;;;3.90;;
14092;SDS011;7123;49.468;10.992;2023-06-14T05:34:16;9.20;;;3.60;;
14092;SDS011;7123;49.468;10.992;2023-06-14T05:36:43;10.40;;;3.83;;
14092;SDS011;7123;49.468;10.992;2023-06-14T05:39:09;4.87;;;3.47;;
14092;SDS011;7123;49.468;10.992;2023-06-14T05:41:36;5.97;;;3.95;;
14092;SDS011;7123;49.468;10.992;2023-06-14T05:44:03;3.67;;;3.37;;
14092;SDS011;7123;49.468;10.992;2023-06-14T05:46:30;6.40;;;3.73;;
14092;SDS011;7123;49.468;10.992;2023-06-14T05:48:57;6.13;;;3.78;;
14092;SDS011;7123;49.468;10.992;2023-06-14T05:51:24;4.90;;;3.43;;
14092;SDS011;7123;49.468;10.992;2023-06-14T05:53:53;4.83;;;3.80;;
14092;SDS011;7123;49.468;10.992;2023-06-14T05:56:20;8.23;;;3.70;;
14092;SDS011;7123;49.468;10.992;2023-06-14T05:58:47;6.97;;;4.00;;
14092;SDS011;7123;49.468;10.992;2023-06-14T06:01:15;4.40;;;4.00;;
14092;SDS011;7123;49.468;10.992;2023-06-14T06:03:42;4.45;;;4.05;;
14092;SDS011;7123;49.468;10.992;2023-06-14T06:06:12;4.22;;;3.78;;
14092;SDS011;7123;49.468;10.992;2023-06-14T06:08:41;4.18;;;3.78;;
14092;SDS011;7123;49.468;10.992;2023-06-14T06:11:08;6.00;;;3.60;;
14092;SDS011;7123;49.468;10.992;2023-06-14T06:13:35;4.65;;;3.92;;
14092;SDS011;7123;49.468;10.992;2023-06-14T06:16:02;3.78;;;3.47;;
14092;SDS011;7123;49.468;10.992;2023-06-14T06:18:29;8.27;;;3.70;;
14092;SDS011;7123;49.468;10.992;2023-06-14T06:20:57;5.77;;;3.50;;
14092;SDS011;7123;49.468;10.992;2023-06-14T06:23:27;6.47;;;3.65;;
14092;SDS011;7123;49.468;10.992;2023-06-14T06:25:53;5.60;;;3.83;;
14092;SDS011;7123;49.468;10.992;2023-06-14T06:28:20;4.97;;;3.70;;
14092;SDS011;7123;49.468;10.992;2023-06-14T06:30:47;4.00;;;3.73;;
14092;SDS011;7123;49.468;10.992;2023-06-14T06:33:14;3.90;;;3.60;;
14092;SDS011;7123;49.468;10.992;2023-06-14T06:35:41;3.73;;;3.43;;
14092;SDS011;7123;49.468;10.992;2023-06-14T06:38:09;3.60;;;3.40;;
14092;SDS011;7123;49.468;10.992;2023-06-14T06:40:36;5.63;;;3.73;;
14092;SDS011;7123;49.468;10.992;2023-06-14T06:43:03;4.30;;;3.90;;
14092;SDS011;7123;49.468;10.992;2023-06-14T06:45:30;4.47;;;3.87;;
14092;SDS011;7123;49.468;10.992;2023-06-14T06:47:56;3.33;;;3.13;;
14092;SDS011;7123;49.468;10.992;2023-06-14T06:50:23;3.72;;;3.30;;
14092;SDS011;7123;49.468;10.992;2023-06-14T06:52:51;5.32;;;3.65;;
14092;SDS011;7123;49.468;10.992;2023-06-14T06:55:20;4.00;;;3.70;;
14092;SDS011;7123;49.468;10.992;2023-06-14T06:57:47;4.93;;;3.60;;
14092;SDS011;7123;49.468;10.992;2023-06-14T07:00:14;4.50;;;3.63;;
14092;SDS011;7123;49.468;10.992;2023-06-14T07:02:42;3.73;;;3.43;;
14092;SDS011;7123;49.468;10.992;2023-06-14T07:05:08;4.50;;;3.40;;
14092;SDS011;7123;49.468;10.992;2023-06-14T07:07:35;3.67;;;3.40;;
14092;SDS011;7123;49.468;10.992;2023-06-14T07:10:02;3.50;;;3.30;;
14092;SDS011;7123;49.468;10.992;2023-06-14T07:12:31;7.07;;;3.90;;
14092;SDS011;7123;49.468;10.992;2023-06-14T07:15:00;5.83;;;3.70;;
14092;SDS011;7123;49.468;10.992;2023-06-14T07:17:27;3.70;;;3.40;;
14092;SDS011;7123;49.468;10.992;2023-06-14T07:19:54;6.53;;;3.78;;
14092;SDS011;7123;49.468;10.992;2023-06-14T07:22:21;4.30;;;3.50;;
14092;SDS011;7123;49.468;10.992;2023-06-14T07:24:47;4.20;;;3.42;;
14092;SDS011;7123;49.468;10.992;2023-06-14T07:27:14;3.15;;;2.95;;
14092;SDS011;7123;49.468;10.992;2023-06-14T07:29:41;4.28;;;3.55;;
14092;SDS011;7123;49.468;10.992;2023-06-14T07:32:08;5.53;;;3.73;;
14092;SDS011;7123;49.468;10.992;2023-06-14T07:34:34;4.30;;;3.70;;
14092;SDS011;7123;49.468;10.992;2023-06-14T07:37:01;3.83;;;3.40;;
14092;SDS011;7123;49.468;10.992;2023-06-14T07:39:28;4.40;;;3.83;;
14092;SDS011;7123;49.468;10.992;2023-06-14T07:41:56;3.65;;;3.17;;
14092;SDS011;7123;49.468;10.992;2023-06-14T07:44:23;5.05;;;3.50;;
14092;SDS011;7123;49.468;10.992;2023-06-14T07:46:49;4.07;;;3.78;;
14092;SDS011;7123;49.468;10.992;2023-06-14T07:49:16;5.43;;;2.97;;
14092;SDS011;7123;49.468;10.992;2023-06-14T07:51:43;3.53;;;3.23;;
14092;SDS011;7123;49.468;10.992;2023-06-14T07:54:11;4.63;;;3.30;;
14092;SDS011;7123;49.468;10.992;2023-06-14T07:56:38;4.00;;;3.08;;
14092;SDS011;7123;49.468;10.992;2023-06-14T07:59:06;4.07;;;3.22;;
14092;SDS011;7123;49.468;10.992;2023-06-14T08:01:33;4.93;;;3.15;;
14092;SDS011;7123;49.468;10.992;2023-06-14T08:04:01;3.97;;;3.20;;
14092;SDS011;7123;49.468;10.992;2023-06-14T08:06:28;6.93;;;3.10;;
14092;SDS011;7123;49.468;10.992;2023-06-14T08:08:55;3.35;;;3.15;;
14092;SDS011;7123;49.468;10.992;2023-06-14T08:11:21;6.13;;;3.40;;
14092;SDS011;7123;49.468;10.992;2023-06-14T08:13:50;4.67;;;3.20;;
14092;SDS011;7123;49.468;10.992;2023-06-14T08:16:17;4.00;;;3.40;;
14092;SDS011;7123;49.468;10.992;2023-06-14T08:18:44;4.43;;;3.03;;
14092;SDS011;7123;49.468;10.992;2023-06-14T08:21:11;3.65;;;3.35;;
14092;SDS011;7123;49.468;10.992;2023-06-14T08:23:37;4.03;;;3.43;;
14092;SDS011;7123;49.468;10.992;2023-06-14T08:26:04;4.43;;;3.20;;
14092;SDS011;7123;49.468;10.992;2023-06-14T08:28:31;3.67;;;3.30;;
14092;SDS011;7123;49.468;10.992;2023-06-14T08:30:58;3.80;;;3.50;;
14092;SDS011;7123;49.468;10.992;2023-06-14T08:33:25;3.87;;;3.60;;
14092;SDS011;7123;49.468;10.992;2023-06-14T08:35:52;3.60;;;3.30;;
14092;SDS011;7123;49.468;10.992;2023-06-14T08:38:20;4.60;;;3.60;;
14092;SDS011;7123;49.468;10.992;2023-06-14T08:40:47;4.50;;;3.50;;
14092;SDS011;7123;49.468;10.992;2023-06-14T08:43:17;4.75;;;3.45;;
14092;SDS011;7123;49.468;10.992;2023-06-14T08:45:45;4.53;;;3.80;;
14092;SDS011;7123;49.468;10.992;2023-06-14T08:48:13;4.82;;;3.42;;
14092;SDS011;7123;49.468;10.992;2023-06-14T08:50:43;3.93;;;3.30;;
14092;SDS011;7123;49.468;10.992;2023-06-14T08:53:13;4.90;;;3.57;;
14092;SDS011;7123;49.468;10.992;2023-06-14T08:55:42;5.20;;;3.30;;
14092;SDS011;7123;49.468;10.992;2023-06-14T08:58:09;3.80;;;3.50;;
14092;SDS011;7123;49.468;10.992;2023-06-14T09:00:41;4.50;;;3.40;;
14092;SDS011;7123;49.468;10.992;2023-06-14T09:03:09;6.05;;;3.28;;
14092;SDS011;7123;49.468;10.992;2023-06-14T09:05:40;4.20;;;3.80;;
14092;SDS011;7123;49.468;10.992;2023-06-14T09:08:08;4.57;;;3.60;;
14092;SDS011;7123;49.468;10.992;2023-06-14T09:10:39;3.97;;;3.55;;
14092;SDS011;7123;49.468;10.992;2023-06-14T09:13:07;6.32;;;3.40;;
14092;SDS011;7123;49.468;10.992;2023-06-14T09:15:34;3.67;;;3.38;;
14092;SDS011;7123;49.468;10.992;2023-06-14T09:18:01;3.72;;;3.42;;
14092;SDS011;7123;49.468;10.992;2023-06-14T09:20:29;4.63;;;3.40;;
14092;SDS011;7123;49.468;10.992;2023-06-14T09:22:57;5.10;;;3.47;;
14092;SDS011;7123;49.468;10.992;2023-06-14T09:25:24;7.68;;;3.53;;
14092;SDS011;7123;49.468;10.992;2023-06-14T09:28:08;3.72;;;3.38;;
14092;SDS011;7123;49.468;10.992;2023-06-14T09:30:38;6.60;;;3.72;;
14092;SDS011;7123;49.468;10.992;2023-06-14T09:33:05;3.88;;;3.58;;
14092;SDS011;7123;49.468;10.992;2023-06-14T09:35:32;4.32;;;3.88;;
14092;SDS011;7123;49.468;10.992;2023-06-14T09:37:59;4.30;;;3.90;;
14092;SDS011;7123;49.468;10.992;2023-06-14T09:40:26;3.90;;;3.60;;
14092;SDS011;7123;49.468;10.992;2023-06-14T09:42:54;5.40;;;3.55;;
14092;SDS011;7123;49.468;10.992;2023-06-14T09:45:24;8.75;;;3.75;;
14092;SDS011;7123;49.468;10.992;2023-06-14T09:47:56;3.83;;;3.40;;
14092;SDS011;7123;49.468;10.992;2023-06-14T09:50:33;4.55;;;3.55;;
14092;SDS011;7123;49.468;10.992;2023-06-14T09:53:10;4.25;;;3.47;;
14092;SDS011;7123;49.468;10.992;2023-06-14T09:55:40;3.58;;;3.38;;
14092;SDS011;7123;49.468;10.992;2023-06-14T09:58:08;4.57;;;3.27;;
14092;SDS011;7123;49.468;10.992;2023-06-14T10:00:36;4.78;;;3.47;;
14092;SDS011;7123;49.468;10.992;2023-06-14T10:03:12;4.55;;;3.80;;
14092;SDS011;7123;49.468;10.992;2023-06-14T10:05:44;4.27;;;3.53;;
14092;SDS011;7123;49.468;10.992;2023-06-14T10:08:13;7.28;;;3.53;;
14092;SDS011;7123;49.468;10.992;2023-06-14T10:10:43;4.28;;;3.88;;
14092;SDS011;7123;49.468;10.992;2023-06-14T10:13:10;3.75;;;3.45;;
14092;SDS011;7123;49.468;10.992;2023-06-14T10:15:41;3.67;;;3.35;;
14092;SDS011;7123;49.468;10.992;2023-06-14T10:18:27;5.85;;;3.70;;
14092;SDS011;7123;49.468;10.992;2023-06-14T10:21:16;3.65;;;3.38;;
14092;SDS011;7123;49.468;10.992;2023-06-14T10:23:45;4.82;;;3.88;;
14092;SDS011;7123;49.468;10.992;2023-06-14T10:26:23;4.13;;;3.70;;
14092;SDS011;7123;49.468;10.992;2023-06-14T10:29:01;3.85;;;3.55;;
14092;SDS011;7123;49.468;10.992;2023-06-14T10:31:44;3.90;;;3.42;;
14092;SDS011;7123;49.468;10.992;2023-06-14T10:34:12;4.97;;;3.50;;
14092;SDS011;7123;49.468;10.992;2023-06-14T10:39:32;3.10;;;2.90;;
14092;SDS011;7123;49.468;10.992;2023-06-14T10:42:05;3.72;;;3.40;;
14092;SDS011;7123;49.468;10.992;2023-06-14T10:44:33;4.10;;;3.50;;
14092;SDS011;7123;49.468;10.992;2023-06-14T10:47:08;5.32;;;3.58;;
14092;SDS011;7123;49.468;10.992;2023-06-14T10:49:40;3.90;;;3.40;;
14092;SDS011;7123;49.468;10.992;2023-06-14T10:52:09;6.93;;;3.35;;
14092;SDS011;7123;49.468;10.992;2023-06-14T11:00:24;3.83;;;3.53;;
14092;SDS011;7123;49.468;10.992;2023-06-14T11:11:12;4.47;;;3.25;;
14092;SDS011;7123;49.468;10.992;2023-06-14T11:13:41;4.85;;;3.50;;
14092;SDS011;7123;49.468;10.992;2023-06-14T11:16:13;4.28;;;3.38;;
14092;SDS011;7123;49.468;10.992;2023-06-14T11:18:41;5.22;;;3.33;;
14092;SDS011;7123;49.468;10.992;2023-06-14T11:21:10;6.47;;;3.00;;
14092;SDS011;7123;49.468;10.992;2023-06-14T11:23:37;4.28;;;3.22;;
14092;SDS011;7123;49.468;10.992;2023-06-14T11:26:03;4.22;;;3.53;;
14092;SDS011;7123;49.468;10.992;2023-06-14T11:28:37;4.97;;;3.50;;
14092;SDS011;7123;49.468;10.992;2023-06-14T11:31:05;5.70;;;3.60;;
14092;SDS011;7123;49.468;10.992;2023-06-14T11:33:32;3.40;;;3.20;;
14092;SDS011;7123;49.468;10.992;2023-06-14T11:36:03;6.18;;;3.55;;
14092;SDS011;7123;49.468;10.992;2023-06-14T11:38:35;10.70;;;3.35;;
14092;SDS011;7123;49.468;10.992;2023-06-14T11:41:03;4.10;;;3.47;;
14092;SDS011;7123;49.468;10.992;2023-06-14T11:43:30;4.00;;;3.60;;
14092;SDS011;7123;49.468;10.992;2023-06-14T11:45:59;6.97;;;3.70;;
14092;SDS011;7123;49.468;10.992;2023-06-14T11:48:51;7.40;;;3.70;;
14092;SDS011;7123;49.468;10.992;2023-06-14T11:51:19;4.93;;;3.30;;
14092;SDS011;7123;49.468;10.992;2023-06-14T11:53:49;4.43;;;3.60;;
14092;SDS011;7123;49.468;10.992;2023-06-14T11:56:16;5.40;;;3.47;;
14092;SDS011;7123;49.468;10.992;2023-06-14T11:58:43;3.83;;;3.30;;
14092;SDS011;7123;49.468;10.992;2023-06-14T12:01:14;6.55;;;3.53;;
14092;SDS011;7123;49.468;10.992;2023-06-14T12:03:47;6.15;;;3.33;;
14092;SDS011;7123;49.468;10.992;2023-06-14T12:06:15;4.25;;;3.45;;
14092;SDS011;7123;49.468;10.992;2023-06-14T12:08:54;3.40;;;3.10;;
14092;SDS011;7123;49.468;10.992;2023-06-14T12:11:22;3.50;;;3.20;;
14092;SDS011;7123;49.468;10.992;2023-06-14T12:13:49;3.50;;;3.15;;
14092;SDS011;7123;49.468;10.992;2023-06-14T12:16:16;3.60;;;3.30;;
14092;SDS011;7123;49.468;10.992;2023-06-14T12:18:42;9.60;;;3.08;;
14092;SDS011;7123;49.468;10.992;2023-06-14T12:21:10;4.82;;;3.08;;
14092;SDS011;7123;49.468;10.992;2023-06-14T12:23:44;3.70;;;3.40;;
14092;SDS011;7123;49.468;10.992;2023-06-14T12:28:43;3.40;;;3.20;;
14092;SDS011;7123;49.468;10.992;2023-06-14T12:31:11;3.95;;;3.55;;
14092;SDS011;7123;49.468;10.992;2023-06-14T12:33:39;3.63;;;3.28;;
14092;SDS011;7123;49.468;10.992;2023-06-14T12:36:07;5.15;;;3.10;;
14092;SDS011;7123;49.468;10.992;2023-06-14T12:38:36;4.13;;;3.10;;
14092;SDS011;7123;49.468;10.992;2023-06-14T12:41:03;3.67;;;3.38;;
14092;SDS011;7123;49.468;10.992;2023-06-14T12:43:30;3.67;;;3.30;;
14092;SDS011;7123;49.468;10.992;2023-06-14T12:45:57;5.60;;;2.92;;
14092;SDS011;7123;49.468;10.992;2023-06-14T12:48:24;7.88;;;3.15;;
14092;SDS011;7123;49.468;10.992;2023-06-14T12:50:53;3.88;;;3.17;;
14092;SDS011;7123;49.468;10.992;2023-06-14T12:53:20;3.90;;;3.33;;
14092;SDS011;7123;49.468;10.992;2023-06-14T12:55:47;3.63;;;3.17;;
14092;SDS011;7123;49.468;10.992;2023-06-14T12:58:14;5.88;;;3.80;;
14092;SDS011;7123;49.468;10.992;2023-06-14T13:00:43;3.20;;;3.00;;
14092;SDS011;7123;49.468;10.992;2023-06-14T13:03:10;3.60;;;3.28;;
14092;SDS011;7123;49.468;10.992;2023-06-14T13:05:37;6.18;;;2.90;;
14092;SDS011;7123;49.468;10.992;2023-06-14T13:08:07;3.58;;;3.10;;
14092;SDS011;7123;49.468;10.992;2023-06-14T13:10:37;5.00;;;3.13;;
14092;SDS011;7123;49.468;10.992;2023-06-14T13:13:04;3.55;;;2.88;;
14092;SDS011;7123;49.468;10.992;2023-06-14T13:15:31;3.50;;;2.83;;
14092;SDS011;7123;49.468;10.992;2023-06-14T13:17:57;4.30;;;2.70;;
14092;SDS011;7123;49.468;10.992;2023-06-14T13:20:24;3.45;;;2.85;;
14092;SDS011;7123;49.468;10.992;2023-06-14T13:22:51;6.85;;;2.95;;
14092;SDS011;7123;49.468;10.992;2023-06-14T13:25:18;3.53;;;3.22;;
14092;SDS011;7123;49.468;10.992;2023-06-14T13:27:45;8.15;;;3.28;;
14092;SDS011;7123;49.468;10.992;2023-06-14T13:30:12;7.03;;;3.33;;
14092;SDS011;7123;49.468;10.992;2023-06-14T13:32:39;4.10;;;3.25;;
14092;SDS011;7123;49.468;10.992;2023-06-14T13:35:06;4.13;;;3.30;;
14092;SDS011;7123;49.468;10.992;2023-06-14T13:37:33;7.38;;;3.00;;
14092;SDS011;7123;49.468;10.992;2023-06-14T13:40:00;3.13;;;2.90;;
14092;SDS011;7123;49.468;10.992;2023-06-14T13:42:27;3.88;;;3.13;;
14092;SDS011;7123;49.468;10.992;2023-06-14T13:44:55;5.70;;;2.97;;
14092;SDS011;7123;49.468;10.992;2023-06-14T13:47:22;6.40;;;3.30;;
14092;SDS011;7123;49.468;10.992;2023-06-14T13:49:48;4.97;;;3.10;;
14092;SDS011;7123;49.468;10.992;2023-06-14T13:52:15;4.45;;;3.35;;
14092;SDS011;7123;49.468;10.992;2023-06-14T13:54:42;2.97;;;2.78;;
14092;SDS011;7123;49.468;10.992;2023-06-14T13:57:10;3.58;;;2.85;;
14092;SDS011;7123;49.468;10.992;2023-06-14T13:59:40;4.28;;;3.20;;
14092;SDS011;7123;49.468;10.992;2023-06-14T14:02:07;3.63;;;3.33;;
14092;SDS011;7123;49.468;10.992;2023-06-14T14:04:34;4.38;;;2.83;;
14092;SDS011;7123;49.468;10.992;2023-06-14T14:07:04;3.50;;;2.92;;
14092;SDS011;7123;49.468;10.992;2023-06-14T14:09:32;2.88;;;2.60;;
14092;SDS011;7123;49.468;10.992;2023-06-14T14:12:00;3.28;;;2.97;;
14092;SDS011;7123;49.468;10.992;2023-06-14T14:14:33;4.32;;;3.10;;
14092;SDS011;7123;49.468;10.992;2023-06-14T14:17:00;3.22;;;2.92;;
14092;SDS011;7123;49.468;10.992;2023-06-14T14:19:27;4.10;;;3.30;;
14092;SDS011;7123;49.468;10.992;2023-06-14T14:21:54;3.53;;;3.22;;
14092;SDS011;7123;49.468;10.992;2023-06-14T14:24:20;4.40;;;3.28;;
14092;SDS011;7123;49.468;10.992;2023-06-14T14:26:47;6.72;;;3.00;;
14092;SDS011;7123;49.468;10.992;2023-06-14T14:29:15;3.35;;;2.90;;
14092;SDS011;7123;49.468;10.992;2023-06-14T14:31:43;6.03;;;3.17;;
14092;SDS011;7123;49.468;10.992;2023-06-14T14:34:10;4.50;;;2.92;;
14092;SDS011;7123;49.468;10.992;2023-06-14T14:36:37;4.28;;;2.97;;
14092;SDS011;7123;49.468;10.992;2023-06-14T14:39:08;4.22;;;2.63;;
14092;SDS011;7123;49.468;10.992;2023-06-14T14:41:35;5.18;;;3.20;;
14092;SDS011;7123;49.468;10.992;2023-06-14T14:44:02;9.48;;;2.95;;
14092;SDS011;7123;49.468;10.992;2023-06-14T14:46:29;5.68;;;3.03;;
14092;SDS011;7123;49.468;10.992;2023-06-14T14:48:56;2.80;;;2.60;;
14092;SDS011;7123;49.468;10.992;2023-06-14T14:51:24;3.28;;;2.70;;
14092;SDS011;7123;49.468;10.992;2023-06-14T14:53:51;3.42;;;2.97;;
14092;SDS011;7123;49.468;10.992;2023-06-14T14:56:22;3.53;;;2.70;;
14092;SDS011;7123;49.468;10.992;2023-06-14T14:58:50;4.10;;;2.85;;
14092;SDS011;7123;49.468;10.992;2023-06-14T15:01:17;4.82;;;2.95;;
14092;SDS011;7123;49.468;10.992;2023-06-14T15:03:44;4.38;;;2.97;;
14092;SDS011;7123;49.468;10.992;2023-06-14T15:06:14;3.15;;;2.75;;
14092;SDS011;7123;49.468;10.992;2023-06-14T15:08:41;2.95;;;2.75;;
14092;SDS011;7123;49.468;10.992;2023-06-14T15:11:08;3.97;;;2.75;;
14092;SDS011;7123;49.468;10.992;2023-06-14T15:13:35;2.80;;;2.60;;
14092;SDS011;7123;49.468;10.992;2023-06-14T15:16:01;5.18;;;2.97;;
14092;SDS011;7123;49.468;10.992;2023-06-14T15:18:28;2.92;;;2.72;;